CZFN/ZFN METAR and TAF weather

Enter ICAO airport designator
Station Type Date Time Source
CZFN METAR 2022/08/11 19:00 UTC NOAA

CZFN 111900Z 21004KT 110V250 20SM FEW140 BKN220 18/07 A2995 RMK AC2CI3 SLP149 DENSITY ALT 700FT


Station Type Date Time Source
CZFN Decoded METAR 2022/08/11 19:00 UTC NOAA

Fort Norman Airport, Canada (CZFN) 64-55N 125-34W
Aug 11, 2022 - 03:00 PM EDT / 2022.08.11 1900 UTC
Wind: from the SSW (210 degrees) at 5 MPH (4 KT) (direction variable):0
Visibility: 20 mile(s):0
Sky conditions: mostly cloudy
Temperature: 64 F (18 C)
Dew Point: 44 F (7 C)
Relative Humidity: 48%
Pressure (altimeter): 29.95 in. Hg (1014 hPa)
ob: CZFN 111900Z 21004KT 110V250 20SM FEW140 BKN220 18/07 A2995 RMK AC2CI3 SLP149 DENSITY ALT 700FT
cycle: 19

Station Type Date Time Source
CZFN TAF UTC NOAA

Error!

Example: see airport list